logo
Search for airport 
image banner adimage banner adimage banner ad
image banner ad

SCYL - Lican

Located in Puyehue, Chile

ICAO - SCYL, IATA -

Data provided by Airmate  

General information

Coordinates: S40°38'12" W72°24'48"
Elevation is 625 feet MSL.
Magnetic variation is 7° East
View others Airports in Los Ríos

Operational data

Special qualification required
Current time UTC:
Current local time:
METAR: SCJO 241300Z 03011KT 9999 SCT030 OVC035 11/08 Q1022
TAF: TAF SCJO 241115Z 2412/2424 03015KT 9999 BKN020 OVC050 TN10/2412Z TX11/2418Z BECMG 2421/2423 8000 RA BKN030 OVC040
View NOTAMs / SUP AIP / TFR affecting this airport [VIEW]
Communications frequencies: [VIEW]

Runways:

RWY identifierQFULength (ft)Width (ft)SurfaceLDA (ft)
17188°2027118UNKN
352027118UNKN

Airport contact information

Address: Puyehue Chile

Satellite view of SCYL